sensor_id;sensor_type;location;lat;lon;timestamp;temperature;humidity
3134;DHT22;1577;49.912;10.924;2024-02-15T00:01:11;9.90;99.90
3134;DHT22;1577;49.912;10.924;2024-02-15T00:03:36;9.90;99.90
3134;DHT22;1577;49.912;10.924;2024-02-15T00:06:02;9.90;99.90
3134;DHT22;1577;49.912;10.924;2024-02-15T00:08:29;9.90;99.90
3134;DHT22;1577;49.912;10.924;2024-02-15T00:10:55;10.00;99.90
3134;DHT22;1577;49.912;10.924;2024-02-15T00:13:21;10.10;99.90
3134;DHT22;1577;49.912;10.924;2024-02-15T00:15:48;10.10;99.90
3134;DHT22;1577;49.912;10.924;2024-02-15T00:18:14;10.10;99.90
3134;DHT22;1577;49.912;10.924;2024-02-15T00:20:40;10.00;99.90
3134;DHT22;1577;49.912;10.924;2024-02-15T00:23:05;10.00;99.90
3134;DHT22;1577;49.912;10.924;2024-02-15T00:25:32;9.90;99.90
3134;DHT22;1577;49.912;10.924;2024-02-15T00:27:58;9.90;99.90
3134;DHT22;1577;49.912;10.924;2024-02-15T00:30:26;9.90;99.90
3134;DHT22;1577;49.912;10.924;2024-02-15T00:32:52;9.90;99.90
3134;DHT22;1577;49.912;10.924;2024-02-15T00:35:18;9.90;99.90
3134;DHT22;1577;49.912;10.924;2024-02-15T00:37:44;9.90;99.90
3134;DHT22;1577;49.912;10.924;2024-02-15T00:40:10;9.80;99.90
3134;DHT22;1577;49.912;10.924;2024-02-15T00:42:36;9.80;99.90
3134;DHT22;1577;49.912;10.924;2024-02-15T00:45:03;9.80;99.90
3134;DHT22;1577;49.912;10.924;2024-02-15T00:47:30;9.70;99.90
3134;DHT22;1577;49.912;10.924;2024-02-15T00:49:56;9.70;99.90
3134;DHT22;1577;49.912;10.924;2024-02-15T00:52:22;9.70;99.90
3134;DHT22;1577;49.912;10.924;2024-02-15T00:54:47;9.70;99.90
3134;DHT22;1577;49.912;10.924;2024-02-15T00:57:13;9.70;99.90
3134;DHT22;1577;49.912;10.924;2024-02-15T00:59:39;9.70;99.90
3134;DHT22;1577;49.912;10.924;2024-02-15T01:02:04;9.70;99.90
3134;DHT22;1577;49.912;10.924;2024-02-15T01:04:34;9.80;99.90
3134;DHT22;1577;49.912;10.924;2024-02-15T01:06:59;9.80;99.90
3134;DHT22;1577;49.912;10.924;2024-02-15T01:09:25;9.80;99.90
3134;DHT22;1577;49.912;10.924;2024-02-15T01:11:51;9.80;99.90
3134;DHT22;1577;49.912;10.924;2024-02-15T01:14:16;9.80;99.90
3134;DHT22;1577;49.912;10.924;2024-02-15T01:16:42;9.80;99.90
3134;DHT22;1577;49.912;10.924;2024-02-15T01:19:09;9.70;99.90
3134;DHT22;1577;49.912;10.924;2024-02-15T01:21:35;9.80;99.90
3134;DHT22;1577;49.912;10.924;2024-02-15T01:24:02;9.80;99.90
3134;DHT22;1577;49.912;10.924;2024-02-15T01:26:28;9.80;99.90
3134;DHT22;1577;49.912;10.924;2024-02-15T01:28:55;9.80;99.90
3134;DHT22;1577;49.912;10.924;2024-02-15T01:31:21;9.80;99.90
3134;DHT22;1577;49.912;10.924;2024-02-15T01:33:47;9.80;99.90
3134;DHT22;1577;49.912;10.924;2024-02-15T01:36:16;9.70;99.90
3134;DHT22;1577;49.912;10.924;2024-02-15T01:38:43;9.70;99.90
3134;DHT22;1577;49.912;10.924;2024-02-15T01:41:09;9.70;99.90
3134;DHT22;1577;49.912;10.924;2024-02-15T01:43:35;9.70;99.90
3134;DHT22;1577;49.912;10.924;2024-02-15T01:46:07;9.70;99.90
3134;DHT22;1577;49.912;10.924;2024-02-15T01:48:33;9.70;99.90
3134;DHT22;1577;49.912;10.924;2024-02-15T01:50:58;9.70;99.90
3134;DHT22;1577;49.912;10.924;2024-02-15T01:53:25;9.70;99.90
3134;DHT22;1577;49.912;10.924;2024-02-15T01:55:53;9.80;99.90
3134;DHT22;1577;49.912;10.924;2024-02-15T01:58:19;9.80;99.90
3134;DHT22;1577;49.912;10.924;2024-02-15T02:00:46;9.80;99.90
3134;DHT22;1577;49.912;10.924;2024-02-15T02:03:14;9.80;99.90
3134;DHT22;1577;49.912;10.924;2024-02-15T02:05:41;9.90;99.90
3134;DHT22;1577;49.912;10.924;2024-02-15T02:08:07;9.80;99.90
3134;DHT22;1577;49.912;10.924;2024-02-15T02:10:38;9.80;99.90
3134;DHT22;1577;49.912;10.924;2024-02-15T02:13:04;9.80;99.90
3134;DHT22;1577;49.912;10.924;2024-02-15T02:15:34;9.80;99.90
3134;DHT22;1577;49.912;10.924;2024-02-15T02:18:03;9.80;99.90
3134;DHT22;1577;49.912;10.924;2024-02-15T02:20:31;9.80;99.90
3134;DHT22;1577;49.912;10.924;2024-02-15T02:23:07;9.80;99.90
3134;DHT22;1577;49.912;10.924;2024-02-15T02:25:32;9.90;99.90
3134;DHT22;1577;49.912;10.924;2024-02-15T02:28:00;9.80;99.90
3134;DHT22;1577;49.912;10.924;2024-02-15T02:30:26;9.80;99.90
3134;DHT22;1577;49.912;10.924;2024-02-15T02:32:55;9.90;99.90
3134;DHT22;1577;49.912;10.924;2024-02-15T02:35:22;9.90;99.90
3134;DHT22;1577;49.912;10.924;2024-02-15T02:37:48;9.90;99.90
3134;DHT22;1577;49.912;10.924;2024-02-15T02:40:13;9.90;99.90
3134;DHT22;1577;49.912;10.924;2024-02-15T02:42:49;9.90;99.90
3134;DHT22;1577;49.912;10.924;2024-02-15T02:45:16;10.00;99.90
3134;DHT22;1577;49.912;10.924;2024-02-15T02:47:41;10.00;99.90
3134;DHT22;1577;49.912;10.924;2024-02-15T02:50:07;10.00;99.90
3134;DHT22;1577;49.912;10.924;2024-02-15T02:52:33;10.00;99.90
3134;DHT22;1577;49.912;10.924;2024-02-15T02:54:59;10.10;99.90
3134;DHT22;1577;49.912;10.924;2024-02-15T02:57:24;10.10;99.90
3134;DHT22;1577;49.912;10.924;2024-02-15T02:59:51;10.10;99.90
3134;DHT22;1577;49.912;10.924;2024-02-15T03:02:17;10.00;99.90
3134;DHT22;1577;49.912;10.924;2024-02-15T03:04:43;9.90;99.90
3134;DHT22;1577;49.912;10.924;2024-02-15T03:07:09;9.90;99.90
3134;DHT22;1577;49.912;10.924;2024-02-15T03:09:34;9.90;99.90
3134;DHT22;1577;49.912;10.924;2024-02-15T03:12:02;9.90;99.90
3134;DHT22;1577;49.912;10.924;2024-02-15T03:14:28;9.90;99.90
3134;DHT22;1577;49.912;10.924;2024-02-15T03:16:55;9.90;99.90
3134;DHT22;1577;49.912;10.924;2024-02-15T03:19:21;9.90;99.90
3134;DHT22;1577;49.912;10.924;2024-02-15T03:21:48;9.80;99.90
3134;DHT22;1577;49.912;10.924;2024-02-15T03:24:13;9.80;99.90
3134;DHT22;1577;49.912;10.924;2024-02-15T03:26:39;9.90;99.90
3134;DHT22;1577;49.912;10.924;2024-02-15T03:29:05;9.80;99.90
3134;DHT22;1577;49.912;10.924;2024-02-15T03:31:33;9.80;99.90
3134;DHT22;1577;49.912;10.924;2024-02-15T03:34:00;9.80;99.90
3134;DHT22;1577;49.912;10.924;2024-02-15T03:36:26;9.90;99.90
3134;DHT22;1577;49.912;10.924;2024-02-15T03:38:52;9.90;99.90
3134;DHT22;1577;49.912;10.924;2024-02-15T03:41:19;9.90;99.90
3134;DHT22;1577;49.912;10.924;2024-02-15T03:43:45;9.90;99.90
3134;DHT22;1577;49.912;10.924;2024-02-15T03:46:12;9.90;99.90
3134;DHT22;1577;49.912;10.924;2024-02-15T03:48:38;9.90;99.90
3134;DHT22;1577;49.912;10.924;2024-02-15T03:51:04;9.90;99.90
3134;DHT22;1577;49.912;10.924;2024-02-15T03:53:32;9.90;99.90
3134;DHT22;1577;49.912;10.924;2024-02-15T03:55:59;9.80;99.90
3134;DHT22;1577;49.912;10.924;2024-02-15T03:58:25;9.80;99.90
3134;DHT22;1577;49.912;10.924;2024-02-15T04:00:51;9.90;99.90
3134;DHT22;1577;49.912;10.924;2024-02-15T04:03:17;9.90;99.90
3134;DHT22;1577;49.912;10.924;2024-02-15T04:05:42;9.90;99.90
3134;DHT22;1577;49.912;10.924;2024-02-15T04:08:08;9.80;99.90
3134;DHT22;1577;49.912;10.924;2024-02-15T04:10:34;9.80;99.90
3134;DHT22;1577;49.912;10.924;2024-02-15T04:13:00;9.80;99.90
3134;DHT22;1577;49.912;10.924;2024-02-15T04:15:25;9.90;99.90
3134;DHT22;1577;49.912;10.924;2024-02-15T04:17:51;9.90;99.90
3134;DHT22;1577;49.912;10.924;2024-02-15T04:20:22;9.90;99.90
3134;DHT22;1577;49.912;10.924;2024-02-15T04:22:47;9.90;99.90
3134;DHT22;1577;49.912;10.924;2024-02-15T04:25:15;9.90;99.90
3134;DHT22;1577;49.912;10.924;2024-02-15T04:27:46;9.90;99.90
3134;DHT22;1577;49.912;10.924;2024-02-15T04:30:12;9.90;99.90
3134;DHT22;1577;49.912;10.924;2024-02-15T04:32:38;10.00;99.90
3134;DHT22;1577;49.912;10.924;2024-02-15T04:35:04;10.00;99.90
3134;DHT22;1577;49.912;10.924;2024-02-15T04:37:31;10.00;99.90
3134;DHT22;1577;49.912;10.924;2024-02-15T04:39:58;9.90;99.90
3134;DHT22;1577;49.912;10.924;2024-02-15T04:42:24;9.90;99.90
3134;DHT22;1577;49.912;10.924;2024-02-15T04:44:52;9.90;99.90
3134;DHT22;1577;49.912;10.924;2024-02-15T04:47:19;10.00;99.90
3134;DHT22;1577;49.912;10.924;2024-02-15T04:49:45;10.00;99.90
3134;DHT22;1577;49.912;10.924;2024-02-15T04:52:11;10.00;99.90
3134;DHT22;1577;49.912;10.924;2024-02-15T04:54:37;10.00;99.90
3134;DHT22;1577;49.912;10.924;2024-02-15T04:57:03;10.00;99.90
3134;DHT22;1577;49.912;10.924;2024-02-15T04:59:29;10.00;99.90
3134;DHT22;1577;49.912;10.924;2024-02-15T05:01:55;10.00;99.90
3134;DHT22;1577;49.912;10.924;2024-02-15T05:04:23;10.00;99.90
3134;DHT22;1577;49.912;10.924;2024-02-15T05:06:50;10.00;99.90
3134;DHT22;1577;49.912;10.924;2024-02-15T05:09:16;9.90;99.90
3134;DHT22;1577;49.912;10.924;2024-02-15T05:11:44;9.90;99.90
3134;DHT22;1577;49.912;10.924;2024-02-15T05:14:16;9.90;99.90
3134;DHT22;1577;49.912;10.924;2024-02-15T05:16:49;9.90;99.90
3134;DHT22;1577;49.912;10.924;2024-02-15T05:19:15;9.90;99.90
3134;DHT22;1577;49.912;10.924;2024-02-15T05:21:42;9.90;99.90
3134;DHT22;1577;49.912;10.924;2024-02-15T05:24:14;9.90;99.90
3134;DHT22;1577;49.912;10.924;2024-02-15T05:26:41;9.90;99.90
3134;DHT22;1577;49.912;10.924;2024-02-15T05:29:08;9.80;99.90
3134;DHT22;1577;49.912;10.924;2024-02-15T05:31:35;9.90;99.90
3134;DHT22;1577;49.912;10.924;2024-02-15T05:34:04;9.90;99.90
3134;DHT22;1577;49.912;10.924;2024-02-15T05:36:30;9.80;99.90
3134;DHT22;1577;49.912;10.924;2024-02-15T05:38:56;9.80;99.90
3134;DHT22;1577;49.912;10.924;2024-02-15T05:41:23;9.80;99.90
3134;DHT22;1577;49.912;10.924;2024-02-15T05:43:49;9.80;99.90
3134;DHT22;1577;49.912;10.924;2024-02-15T05:46:17;9.80;99.90
3134;DHT22;1577;49.912;10.924;2024-02-15T05:48:43;9.80;99.90
3134;DHT22;1577;49.912;10.924;2024-02-15T05:51:11;9.80;99.90
3134;DHT22;1577;49.912;10.924;2024-02-15T05:53:37;9.80;99.90
3134;DHT22;1577;49.912;10.924;2024-02-15T05:56:04;9.80;99.90
3134;DHT22;1577;49.912;10.924;2024-02-15T05:58:31;9.90;99.90
3134;DHT22;1577;49.912;10.924;2024-02-15T06:00:57;9.80;99.90
3134;DHT22;1577;49.912;10.924;2024-02-15T06:03:30;9.90;99.90
3134;DHT22;1577;49.912;10.924;2024-02-15T06:05:57;9.90;99.90
3134;DHT22;1577;49.912;10.924;2024-02-15T06:08:26;9.90;99.90
3134;DHT22;1577;49.912;10.924;2024-02-15T06:10:53;9.80;99.90
3134;DHT22;1577;49.912;10.924;2024-02-15T06:13:19;9.80;99.90
3134;DHT22;1577;49.912;10.924;2024-02-15T06:15:45;9.70;99.90
3134;DHT22;1577;49.912;10.924;2024-02-15T06:18:14;9.80;99.90
3134;DHT22;1577;49.912;10.924;2024-02-15T06:20:41;9.80;99.90
3134;DHT22;1577;49.912;10.924;2024-02-15T06:23:08;9.70;99.90
3134;DHT22;1577;49.912;10.924;2024-02-15T06:25:35;9.80;99.90
3134;DHT22;1577;49.912;10.924;2024-02-15T06:28:01;9.80;99.90
3134;DHT22;1577;49.912;10.924;2024-02-15T06:30:39;9.90;99.90
3134;DHT22;1577;49.912;10.924;2024-02-15T06:33:23;9.90;99.90
3134;DHT22;1577;49.912;10.924;2024-02-15T06:36:08;9.90;99.90
3134;DHT22;1577;49.912;10.924;2024-02-15T06:38:52;9.80;99.90
3134;DHT22;1577;49.912;10.924;2024-02-15T06:41:36;9.80;99.90
3134;DHT22;1577;49.912;10.924;2024-02-15T06:44:02;9.80;99.90
3134;DHT22;1577;49.912;10.924;2024-02-15T06:46:27;9.80;99.90
3134;DHT22;1577;49.912;10.924;2024-02-15T06:48:53;9.80;99.90
3134;DHT22;1577;49.912;10.924;2024-02-15T06:51:20;9.80;99.90
3134;DHT22;1577;49.912;10.924;2024-02-15T06:53:45;9.90;99.90
3134;DHT22;1577;49.912;10.924;2024-02-15T06:56:11;9.90;99.90
3134;DHT22;1577;49.912;10.924;2024-02-15T06:58:39;9.90;99.90
3134;DHT22;1577;49.912;10.924;2024-02-15T07:01:08;10.00;99.90
3134;DHT22;1577;49.912;10.924;2024-02-15T07:03:34;10.00;99.90
3134;DHT22;1577;49.912;10.924;2024-02-15T07:05:59;9.90;99.90
3134;DHT22;1577;49.912;10.924;2024-02-15T07:08:25;9.90;99.90
3134;DHT22;1577;49.912;10.924;2024-02-15T07:10:51;9.90;99.90
3134;DHT22;1577;49.912;10.924;2024-02-15T07:13:17;9.90;99.90
3134;DHT22;1577;49.912;10.924;2024-02-15T07:15:44;9.90;99.90
3134;DHT22;1577;49.912;10.924;2024-02-15T07:18:12;10.00;99.90
3134;DHT22;1577;49.912;10.924;2024-02-15T07:20:41;10.00;99.90
3134;DHT22;1577;49.912;10.924;2024-02-15T07:23:07;10.00;99.90
3134;DHT22;1577;49.912;10.924;2024-02-15T07:25:33;10.10;99.90
3134;DHT22;1577;49.912;10.924;2024-02-15T07:27:58;10.10;99.90
3134;DHT22;1577;49.912;10.924;2024-02-15T07:30:24;10.10;99.90
3134;DHT22;1577;49.912;10.924;2024-02-15T07:32:50;10.20;99.90
3134;DHT22;1577;49.912;10.924;2024-02-15T07:35:15;10.30;99.90
3134;DHT22;1577;49.912;10.924;2024-02-15T07:37:55;10.30;99.90
3134;DHT22;1577;49.912;10.924;2024-02-15T07:40:23;10.40;99.90
3134;DHT22;1577;49.912;10.924;2024-02-15T07:42:54;10.50;99.90
3134;DHT22;1577;49.912;10.924;2024-02-15T07:45:20;10.50;99.90
3134;DHT22;1577;49.912;10.924;2024-02-15T07:47:45;10.60;99.90
3134;DHT22;1577;49.912;10.924;2024-02-15T07:50:18;10.50;99.90
3134;DHT22;1577;49.912;10.924;2024-02-15T07:52:48;10.60;99.90
3134;DHT22;1577;49.912;10.924;2024-02-15T07:55:14;10.70;99.90
3134;DHT22;1577;49.912;10.924;2024-02-15T07:57:40;10.60;99.90
3134;DHT22;1577;49.912;10.924;2024-02-15T08:00:06;10.70;99.90
3134;DHT22;1577;49.912;10.924;2024-02-15T08:02:37;10.70;99.90
3134;DHT22;1577;49.912;10.924;2024-02-15T08:05:06;10.70;99.90
3134;DHT22;1577;49.912;10.924;2024-02-15T08:07:38;10.80;99.90
3134;DHT22;1577;49.912;10.924;2024-02-15T08:10:05;10.80;99.90
3134;DHT22;1577;49.912;10.924;2024-02-15T08:12:33;10.80;99.90
3134;DHT22;1577;49.912;10.924;2024-02-15T08:14:59;10.90;99.90
3134;DHT22;1577;49.912;10.924;2024-02-15T08:17:24;10.90;99.90
3134;DHT22;1577;49.912;10.924;2024-02-15T08:19:51;10.90;99.90
3134;DHT22;1577;49.912;10.924;2024-02-15T08:22:17;11.00;99.90
3134;DHT22;1577;49.912;10.924;2024-02-15T08:24:45;11.20;99.90
3134;DHT22;1577;49.912;10.924;2024-02-15T08:27:10;11.20;99.90
3134;DHT22;1577;49.912;10.924;2024-02-15T08:29:36;11.20;99.90
3134;DHT22;1577;49.912;10.924;2024-02-15T08:32:01;11.20;99.90
3134;DHT22;1577;49.912;10.924;2024-02-15T08:34:27;11.20;99.90
3134;DHT22;1577;49.912;10.924;2024-02-15T08:36:53;11.20;99.90
3134;DHT22;1577;49.912;10.924;2024-02-15T08:39:19;11.20;99.90
3134;DHT22;1577;49.912;10.924;2024-02-15T08:41:44;11.30;99.90
3134;DHT22;1577;49.912;10.924;2024-02-15T08:44:11;11.30;99.90
3134;DHT22;1577;49.912;10.924;2024-02-15T08:46:40;11.40;99.90
3134;DHT22;1577;49.912;10.924;2024-02-15T08:49:06;11.50;99.90
3134;DHT22;1577;49.912;10.924;2024-02-15T08:51:32;11.70;99.90
3134;DHT22;1577;49.912;10.924;2024-02-15T08:53:58;11.80;99.90
3134;DHT22;1577;49.912;10.924;2024-02-15T08:56:25;11.80;99.90
3134;DHT22;1577;49.912;10.924;2024-02-15T08:58:50;12.00;99.90
3134;DHT22;1577;49.912;10.924;2024-02-15T09:01:16;12.00;99.90
3134;DHT22;1577;49.912;10.924;2024-02-15T09:03:42;12.10;99.90
3134;DHT22;1577;49.912;10.924;2024-02-15T09:06:10;12.10;99.90
3134;DHT22;1577;49.912;10.924;2024-02-15T09:08:36;12.10;99.90
3134;DHT22;1577;49.912;10.924;2024-02-15T09:11:01;12.20;99.90
3134;DHT22;1577;49.912;10.924;2024-02-15T09:13:27;12.20;99.90
3134;DHT22;1577;49.912;10.924;2024-02-15T09:15:53;12.30;99.90
3134;DHT22;1577;49.912;10.924;2024-02-15T09:18:18;12.50;99.90
3134;DHT22;1577;49.912;10.924;2024-02-15T09:20:46;12.70;99.90
3134;DHT22;1577;49.912;10.924;2024-02-15T09:23:14;12.80;99.90
3134;DHT22;1577;49.912;10.924;2024-02-15T09:25:40;12.80;99.90
3134;DHT22;1577;49.912;10.924;2024-02-15T09:28:08;13.00;99.90
3134;DHT22;1577;49.912;10.924;2024-02-15T09:30:33;13.10;99.90
3134;DHT22;1577;49.912;10.924;2024-02-15T09:33:01;13.10;99.90
3134;DHT22;1577;49.912;10.924;2024-02-15T09:35:30;13.10;99.90
3134;DHT22;1577;49.912;10.924;2024-02-15T09:37:56;13.20;99.90
3134;DHT22;1577;49.912;10.924;2024-02-15T09:40:22;13.30;99.90
3134;DHT22;1577;49.912;10.924;2024-02-15T09:42:52;13.40;99.90
3134;DHT22;1577;49.912;10.924;2024-02-15T09:45:18;13.60;99.90
3134;DHT22;1577;49.912;10.924;2024-02-15T09:47:46;13.70;99.90
3134;DHT22;1577;49.912;10.924;2024-02-15T09:50:13;13.70;99.90
3134;DHT22;1577;49.912;10.924;2024-02-15T09:52:40;13.70;99.90
3134;DHT22;1577;49.912;10.924;2024-02-15T09:55:07;13.70;99.90
3134;DHT22;1577;49.912;10.924;2024-02-15T09:57:41;14.00;99.90
3134;DHT22;1577;49.912;10.924;2024-02-15T10:00:07;14.00;99.90
3134;DHT22;1577;49.912;10.924;2024-02-15T10:02:35;14.20;99.90
3134;DHT22;1577;49.912;10.924;2024-02-15T10:05:02;14.30;99.90
3134;DHT22;1577;49.912;10.924;2024-02-15T10:07:28;14.40;99.90
3134;DHT22;1577;49.912;10.924;2024-02-15T10:09:54;14.40;99.90
3134;DHT22;1577;49.912;10.924;2024-02-15T10:12:20;14.40;99.90
3134;DHT22;1577;49.912;10.924;2024-02-15T10:14:50;14.50;99.90
3134;DHT22;1577;49.912;10.924;2024-02-15T10:17:18;14.50;99.90
3134;DHT22;1577;49.912;10.924;2024-02-15T10:19:44;14.70;99.90
3134;DHT22;1577;49.912;10.924;2024-02-15T10:22:12;14.80;99.90
3134;DHT22;1577;49.912;10.924;2024-02-15T10:24:40;14.70;99.90
3134;DHT22;1577;49.912;10.924;2024-02-15T10:27:06;14.50;99.90
3134;DHT22;1577;49.912;10.924;2024-02-15T10:29:33;14.30;99.90
3134;DHT22;1577;49.912;10.924;2024-02-15T10:32:03;14.20;99.90
3134;DHT22;1577;49.912;10.924;2024-02-15T10:34:30;14.10;99.90
3134;DHT22;1577;49.912;10.924;2024-02-15T10:37:12;13.90;99.90
3134;DHT22;1577;49.912;10.924;2024-02-15T10:39:38;13.90;99.90
3134;DHT22;1577;49.912;10.924;2024-02-15T10:42:06;14.00;99.90
3134;DHT22;1577;49.912;10.924;2024-02-15T10:44:32;13.90;99.90
3134;DHT22;1577;49.912;10.924;2024-02-15T10:47:02;13.90;99.90
3134;DHT22;1577;49.912;10.924;2024-02-15T10:49:32;13.80;99.90
3134;DHT22;1577;49.912;10.924;2024-02-15T10:51:59;13.90;99.90
3134;DHT22;1577;49.912;10.924;2024-02-15T10:54:50;14.00;99.90
3134;DHT22;1577;49.912;10.924;2024-02-15T10:57:21;14.00;99.90
3134;DHT22;1577;49.912;10.924;2024-02-15T10:59:59;14.10;99.90
3134;DHT22;1577;49.912;10.924;2024-02-15T11:02:37;14.10;99.90
3134;DHT22;1577;49.912;10.924;2024-02-15T11:05:06;14.10;99.90
3134;DHT22;1577;49.912;10.924;2024-02-15T11:07:36;14.10;99.90
3134;DHT22;1577;49.912;10.924;2024-02-15T11:10:02;14.10;99.90
3134;DHT22;1577;49.912;10.924;2024-02-15T11:12:31;14.30;99.90
3134;DHT22;1577;49.912;10.924;2024-02-15T11:14:57;14.40;99.90
3134;DHT22;1577;49.912;10.924;2024-02-15T11:23:00;14.80;99.90
3134;DHT22;1577;49.912;10.924;2024-02-15T11:25:39;14.80;99.90
3134;DHT22;1577;49.912;10.924;2024-02-15T11:30:55;14.70;99.90
3134;DHT22;1577;49.912;10.924;2024-02-15T11:33:34;14.70;99.90
3134;DHT22;1577;49.912;10.924;2024-02-15T11:36:12;14.80;99.90
3134;DHT22;1577;49.912;10.924;2024-02-15T11:38:39;14.70;99.90
3134;DHT22;1577;49.912;10.924;2024-02-15T11:41:09;14.70;99.90
3134;DHT22;1577;49.912;10.924;2024-02-15T11:43:45;14.80;99.90
3134;DHT22;1577;49.912;10.924;2024-02-15T11:46:16;14.90;99.90
3134;DHT22;1577;49.912;10.924;2024-02-15T11:48:47;14.90;99.90
3134;DHT22;1577;49.912;10.924;2024-02-15T11:51:34;15.00;99.90
3134;DHT22;1577;49.912;10.924;2024-02-15T11:54:11;15.00;99.90
3134;DHT22;1577;49.912;10.924;2024-02-15T11:56:56;14.90;99.90
3134;DHT22;1577;49.912;10.924;2024-02-15T11:59:42;14.90;99.90
3134;DHT22;1577;49.912;10.924;2024-02-15T12:02:43;14.90;99.90
3134;DHT22;1577;49.912;10.924;2024-02-15T12:05:27;14.90;99.90
3134;DHT22;1577;49.912;10.924;2024-02-15T12:08:12;15.10;99.90
3134;DHT22;1577;49.912;10.924;2024-02-15T12:10:59;15.20;99.90
3134;DHT22;1577;49.912;10.924;2024-02-15T12:13:50;15.30;99.90
3134;DHT22;1577;49.912;10.924;2024-02-15T12:16:34;15.30;99.90
3134;DHT22;1577;49.912;10.924;2024-02-15T12:19:19;15.30;99.90
3134;DHT22;1577;49.912;10.924;2024-02-15T12:21:45;15.30;99.90
3134;DHT22;1577;49.912;10.924;2024-02-15T12:24:11;15.30;99.90
3134;DHT22;1577;49.912;10.924;2024-02-15T12:26:37;15.30;99.90
3134;DHT22;1577;49.912;10.924;2024-02-15T12:29:04;15.20;99.90
3134;DHT22;1577;49.912;10.924;2024-02-15T12:31:31;15.40;99.90
3134;DHT22;1577;49.912;10.924;2024-02-15T12:34:03;15.40;99.90
3134;DHT22;1577;49.912;10.924;2024-02-15T12:36:35;15.50;99.90
3134;DHT22;1577;49.912;10.924;2024-02-15T12:39:06;15.50;99.90
3134;DHT22;1577;49.912;10.924;2024-02-15T12:41:47;15.50;99.90
3134;DHT22;1577;49.912;10.924;2024-02-15T12:44:16;15.60;99.90
3134;DHT22;1577;49.912;10.924;2024-02-15T12:46:42;15.80;99.90
3134;DHT22;1577;49.912;10.924;2024-02-15T12:49:30;16.00;99.90
3134;DHT22;1577;49.912;10.924;2024-02-15T12:57:33;15.90;99.90
3134;DHT22;1577;49.912;10.924;2024-02-15T12:59:59;16.00;99.90
3134;DHT22;1577;49.912;10.924;2024-02-15T13:02:25;16.00;99.90
3134;DHT22;1577;49.912;10.924;2024-02-15T13:04:57;16.10;99.90
3134;DHT22;1577;49.912;10.924;2024-02-15T13:07:23;16.10;99.90
3134;DHT22;1577;49.912;10.924;2024-02-15T13:09:49;16.00;99.90
3134;DHT22;1577;49.912;10.924;2024-02-15T13:12:15;16.00;99.90
3134;DHT22;1577;49.912;10.924;2024-02-15T13:14:40;15.90;99.90
3134;DHT22;1577;49.912;10.924;2024-02-15T13:17:06;15.80;99.90
3134;DHT22;1577;49.912;10.924;2024-02-15T13:19:31;16.00;99.90
3134;DHT22;1577;49.912;10.924;2024-02-15T13:21:59;16.00;99.90
3134;DHT22;1577;49.912;10.924;2024-02-15T13:24:25;16.00;99.90
3134;DHT22;1577;49.912;10.924;2024-02-15T13:26:51;15.90;99.90
3134;DHT22;1577;49.912;10.924;2024-02-15T13:29:17;16.00;99.90
3134;DHT22;1577;49.912;10.924;2024-02-15T13:31:42;15.90;99.90
3134;DHT22;1577;49.912;10.924;2024-02-15T13:34:09;15.90;99.90
3134;DHT22;1577;49.912;10.924;2024-02-15T13:36:37;15.70;99.90
3134;DHT22;1577;49.912;10.924;2024-02-15T13:39:03;15.60;99.90
3134;DHT22;1577;49.912;10.924;2024-02-15T13:41:30;15.70;99.90
3134;DHT22;1577;49.912;10.924;2024-02-15T13:43:56;15.60;99.90
3134;DHT22;1577;49.912;10.924;2024-02-15T13:46:21;15.50;99.90
3134;DHT22;1577;49.912;10.924;2024-02-15T13:48:47;15.50;99.90
3134;DHT22;1577;49.912;10.924;2024-02-15T13:51:12;15.40;99.90
3134;DHT22;1577;49.912;10.924;2024-02-15T13:53:39;15.40;99.90
3134;DHT22;1577;49.912;10.924;2024-02-15T13:56:05;15.20;99.90
3134;DHT22;1577;49.912;10.924;2024-02-15T13:58:30;15.20;99.90
3134;DHT22;1577;49.912;10.924;2024-02-15T14:00:57;15.10;99.90
3134;DHT22;1577;49.912;10.924;2024-02-15T14:03:24;15.10;99.90
3134;DHT22;1577;49.912;10.924;2024-02-15T14:05:50;14.90;99.90
3134;DHT22;1577;49.912;10.924;2024-02-15T14:08:15;14.90;99.90
3134;DHT22;1577;49.912;10.924;2024-02-15T14:10:41;14.90;99.90
3134;DHT22;1577;49.912;10.924;2024-02-15T14:13:07;14.90;99.90
3134;DHT22;1577;49.912;10.924;2024-02-15T14:15:37;14.90;99.90
3134;DHT22;1577;49.912;10.924;2024-02-15T14:18:07;14.90;99.90
3134;DHT22;1577;49.912;10.924;2024-02-15T14:20:36;14.90;99.90
3134;DHT22;1577;49.912;10.924;2024-02-15T14:23:01;14.90;99.90
3134;DHT22;1577;49.912;10.924;2024-02-15T14:25:31;15.00;99.90
3134;DHT22;1577;49.912;10.924;2024-02-15T14:27:57;15.10;99.90
3134;DHT22;1577;49.912;10.924;2024-02-15T14:30:26;15.00;99.90
3134;DHT22;1577;49.912;10.924;2024-02-15T14:33:11;15.00;99.90
3134;DHT22;1577;49.912;10.924;2024-02-15T14:35:40;14.90;99.90
3134;DHT22;1577;49.912;10.924;2024-02-15T14:38:08;15.00;99.90
3134;DHT22;1577;49.912;10.924;2024-02-15T14:40:41;15.00;99.90
3134;DHT22;1577;49.912;10.924;2024-02-15T14:43:19;15.00;99.90
3134;DHT22;1577;49.912;10.924;2024-02-15T14:45:47;15.00;99.90
3134;DHT22;1577;49.912;10.924;2024-02-15T14:48:13;15.00;99.90
3134;DHT22;1577;49.912;10.924;2024-02-15T14:50:39;15.10;99.90
3134;DHT22;1577;49.912;10.924;2024-02-15T14:53:05;15.10;99.90
3134;DHT22;1577;49.912;10.924;2024-02-15T14:55:34;15.00;99.90
3134;DHT22;1577;49.912;10.924;2024-02-15T14:57:59;15.10;99.90
3134;DHT22;1577;49.912;10.924;2024-02-15T15:00:25;15.10;99.90
3134;DHT22;1577;49.912;10.924;2024-02-15T15:02:53;15.10;99.90
3134;DHT22;1577;49.912;10.924;2024-02-15T15:05:22;15.20;99.90
3134;DHT22;1577;49.912;10.924;2024-02-15T15:08:06;15.10;99.90
3134;DHT22;1577;49.912;10.924;2024-02-15T15:10:51;15.10;99.90
3134;DHT22;1577;49.912;10.924;2024-02-15T15:13:35;15.00;99.90
3134;DHT22;1577;49.912;10.924;2024-02-15T15:16:01;14.90;99.90
3134;DHT22;1577;49.912;10.924;2024-02-15T15:18:31;14.90;99.90
3134;DHT22;1577;49.912;10.924;2024-02-15T15:20:57;15.00;99.90
3134;DHT22;1577;49.912;10.924;2024-02-15T15:23:24;14.90;99.90
3134;DHT22;1577;49.912;10.924;2024-02-15T15:25:50;14.90;99.90
3134;DHT22;1577;49.912;10.924;2024-02-15T15:28:16;14.80;99.90
3134;DHT22;1577;49.912;10.924;2024-02-15T15:30:41;14.80;99.90
3134;DHT22;1577;49.912;10.924;2024-02-15T15:33:16;14.80;99.90
3134;DHT22;1577;49.912;10.924;2024-02-15T15:35:43;14.80;99.90
3134;DHT22;1577;49.912;10.924;2024-02-15T15:38:08;14.80;99.90
3134;DHT22;1577;49.912;10.924;2024-02-15T15:40:34;14.70;99.90
3134;DHT22;1577;49.912;10.924;2024-02-15T15:43:01;14.60;99.90
3134;DHT22;1577;49.912;10.924;2024-02-15T15:45:28;14.50;99.90
3134;DHT22;1577;49.912;10.924;2024-02-15T15:47:55;14.50;99.90
3134;DHT22;1577;49.912;10.924;2024-02-15T15:50:20;14.40;99.90
3134;DHT22;1577;49.912;10.924;2024-02-15T15:52:47;14.30;99.90
3134;DHT22;1577;49.912;10.924;2024-02-15T15:55:13;14.20;99.90
3134;DHT22;1577;49.912;10.924;2024-02-15T15:57:40;14.10;99.90
3134;DHT22;1577;49.912;10.924;2024-02-15T16:00:08;13.90;99.90
3134;DHT22;1577;49.912;10.924;2024-02-15T16:02:39;14.00;99.90
3134;DHT22;1577;49.912;10.924;2024-02-15T16:05:04;13.90;99.90
3134;DHT22;1577;49.912;10.924;2024-02-15T16:07:32;13.70;99.90
3134;DHT22;1577;49.912;10.924;2024-02-15T16:09:57;13.70;99.90
3134;DHT22;1577;49.912;10.924;2024-02-15T16:12:23;13.60;99.90